Time;durP1;ratioP1;P1;durP2;ratioP2;P2;SDS_P1;SDS_P2;PMS_P1;PMS_P2;Temp;Humidity;BMP_temperature;BMP_pressure;BME280_temperature;BME280_humidity;BME280_pressure;Samples;Min_cycle;Max_cycle;Signal;HPM_P1;HPM_P2
2023/02/05 00:00:58;;;;;;;;;;;;;;;-1.73;81.89;103077.89;105246;1287;70721;-80
2023/02/05 00:03:44;;;;;;;;;;;;;;;-1.76;81.87;103078.45;105366;1285;60212;-79
2023/02/05 00:06:30;;;;;;;;;;;;;;;-1.79;81.87;103092.29;105306;1287;62084;-79
2023/02/05 00:09:16;;;;;;;;;;;;;;;-1.81;81.92;103098.92;105306;1289;75896;-79
2023/02/05 00:12:02;;;;;;;;;;;;;;;-1.83;81.80;103098.59;105243;1290;67731;-79
2023/02/05 00:14:48;;;;;;;;;;;;;;;-1.88;81.73;103098.21;105320;1290;71343;-79
2023/02/05 00:17:35;;;;;;;;;;;;;;;-1.91;81.81;103103.88;105174;1286;61793;-79
2023/02/05 00:20:21;;;;;;;;;;;;;;;-1.94;81.78;103106.14;105478;1287;61983;-79
2023/02/05 00:23:07;;;;;;;;;;;;;;;-1.97;81.86;103102.89;105247;1286;76726;-79
2023/02/05 00:25:53;;;;;;;;;;;;;;;-1.99;81.93;103098.23;105331;1287;67188;-79
2023/02/05 00:28:41;;;;;;;;;;;;;;;-1.98;81.86;103098.08;105253;1286;70847;-80
2023/02/05 00:31:27;;;;;;;;;;;;;;;-2.00;81.82;103092.08;105280;1288;61959;-79
2023/02/05 00:34:14;;;;;;;;;;;;;;;-2.02;81.84;103094.60;105319;1285;59971;-79
2023/02/05 00:37:00;;;;;;;;;;;;;;;-2.05;81.92;103092.21;105240;1285;74925;-79
2023/02/05 00:39:46;;;;;;;;;;;;;;;-2.07;81.87;103092.90;105223;1285;68273;-79
2023/02/05 00:42:32;;;;;;;;;;;;;;;-2.11;81.76;103094.96;105306;1285;75486;-79
2023/02/05 00:45:19;;;;;;;;;;;;;;;-2.14;81.80;103094.07;105370;1285;61883;-79
2023/02/05 00:48:05;;;;;;;;;;;;;;;-2.17;81.74;103101.10;105260;1287;62069;-79
2023/02/05 00:50:52;;;;;;;;;;;;;;;-2.21;81.76;103101.30;105207;1287;74000;-79
2023/02/05 00:53:38;;;;;;;;;;;;;;;-2.24;81.80;103102.96;105265;1285;67632;-79
2023/02/05 00:56:25;;;;;;;;;;;;;;;-2.28;81.68;103100.91;105228;1287;71096;-79
2023/02/05 00:59:11;;;;;;;;;;;;;;;-2.33;81.66;103103.92;105287;1287;61971;-79
2023/02/05 01:01:57;;;;;;;;;;;;;;;-2.36;81.77;103102.39;105228;1285;61980;-79
2023/02/05 01:04:43;;;;;;;;;;;;;;;-2.38;81.80;103106.79;105256;1285;73998;-79
2023/02/05 01:07:29;;;;;;;;;;;;;;;-2.40;81.78;103105.60;105362;1285;67157;-79
2023/02/05 01:10:15;;;;;;;;;;;;;;;-2.45;81.65;103100.87;105351;1287;71122;-79
2023/02/05 01:13:02;;;;;;;;;;;;;;;-2.50;81.74;103096.92;105169;1285;62059;-79
2023/02/05 01:15:48;;;;;;;;;;;;;;;-2.53;81.65;103093.09;105345;1285;61839;-79
2023/02/05 01:18:35;;;;;;;;;;;;;;;-2.57;81.70;103095.83;105333;1286;74261;-78
2023/02/05 01:21:23;;;;;;;;;;;;;;;-2.62;81.64;103091.97;105346;1285;68429;-78
2023/02/05 01:24:09;;;;;;;;;;;;;;;-2.66;81.58;103085.70;105230;1291;74021;-80
2023/02/05 01:26:57;;;;;;;;;;;;;;;-2.70;81.56;103089.14;105355;1288;61161;-79
2023/02/05 01:29:43;;;;;;;;;;;;;;;-2.76;81.46;103083.96;105412;1285;59790;-79
2023/02/05 01:32:29;;;;;;;;;;;;;;;-2.81;81.52;103076.50;105362;1286;75338;-79
2023/02/05 01:35:15;;;;;;;;;;;;;;;-2.85;81.47;103072.60;105369;1285;68117;-79
2023/02/05 01:38:01;;;;;;;;;;;;;;;-2.90;81.44;103069.33;105239;1285;71283;-79
2023/02/05 01:40:48;;;;;;;;;;;;;;;-2.93;81.50;103072.48;105369;1287;62028;-79
2023/02/05 01:43:34;;;;;;;;;;;;;;;-2.96;81.47;103072.23;105339;1285;62050;-79
2023/02/05 01:46:28;;;;;;;;;;;;;;;-3.02;81.53;103072.69;105393;1286;74712;-79
2023/02/05 01:49:34;;;;;;;;;;;;;;;-3.06;81.49;103067.25;105279;1286;67170;-79
2023/02/05 01:52:27;;;;;;;;;;;;;;;-3.07;81.72;103067.67;105447;1285;72716;-79
2023/02/05 01:55:14;;;;;;;;;;;;;;;-3.09;81.49;103070.36;105303;1285;62037;-79
2023/02/05 01:58:00;;;;;;;;;;;;;;;-3.15;81.44;103075.83;105270;1290;61909;-79
2023/02/05 02:00:46;;;;;;;;;;;;;;;-3.19;81.47;103070.80;105291;1285;74111;-79
2023/02/05 02:03:32;;;;;;;;;;;;;;;-3.22;81.44;103070.73;105282;1285;70218;-79
2023/02/05 02:06:18;;;;;;;;;;;;;;;-3.25;81.43;103073.48;105346;1288;71524;-79
2023/02/05 02:09:05;;;;;;;;;;;;;;;-3.30;81.47;103063.47;105390;1285;62083;-79
2023/02/05 02:11:52;;;;;;;;;;;;;;;-3.35;81.38;103068.21;105287;1285;62074;-79
2023/02/05 02:14:40;;;;;;;;;;;;;;;-3.40;81.31;103067.92;105394;1286;75369;-79
2023/02/05 02:17:27;;;;;;;;;;;;;;;-3.44;81.28;103069.15;105340;1285;67414;-79
2023/02/05 02:20:21;;;;;;;;;;;;;;;-3.50;81.30;103066.64;105367;1285;72605;-79
2023/02/05 02:23:20;;;;;;;;;;;;;;;-3.52;81.35;103065.12;97911;1286;5003340;-79
2023/02/05 02:26:15;;;;;;;;;;;;;;;-3.55;81.35;103060.98;105189;1285;60404;-79
2023/02/05 02:29:02;;;;;;;;;;;;;;;-3.57;81.34;103057.92;105297;1286;75017;-79
2023/02/05 02:31:58;;;;;;;;;;;;;;;-3.60;81.33;103056.55;105267;1285;69973;-78
2023/02/05 02:34:47;;;;;;;;;;;;;;;-3.63;81.29;103053.25;105182;1285;71289;-79
2023/02/05 02:37:43;;;;;;;;;;;;;;;-3.64;81.29;103050.81;105337;1285;61900;-79
2023/02/05 02:40:49;;;;;;;;;;;;;;;-3.69;81.24;103054.52;105355;1285;61818;-79
2023/02/05 02:43:44;;;;;;;;;;;;;;;-3.72;81.30;103052.13;105353;1286;74097;-79
2023/02/05 02:46:33;;;;;;;;;;;;;;;-3.73;81.29;103054.32;105314;1285;67792;-79
2023/02/05 02:49:27;;;;;;;;;;;;;;;-3.73;81.39;103058.55;104859;1285;420792;-78
2023/02/05 02:52:16;;;;;;;;;;;;;;;-3.76;81.36;103057.14;105269;1286;62073;-79
2023/02/05 02:55:06;;;;;;;;;;;;;;;-3.74;81.57;103055.81;105250;1285;62060;-79
2023/02/05 02:57:54;;;;;;;;;;;;;;;-3.75;81.39;103049.83;105698;1285;76190;-79
2023/02/05 03:00:42;;;;;;;;;;;;;;;-3.82;81.29;103046.02;105314;1285;71501;-79
2023/02/05 03:03:31;;;;;;;;;;;;;;;-3.86;81.29;103040.67;105308;1288;71099;-78
2023/02/05 03:06:18;;;;;;;;;;;;;;;-3.87;81.20;103050.51;105228;1287;62020;-79
2023/02/05 03:09:07;;;;;;;;;;;;;;;-3.91;81.21;103050.84;105323;1286;60811;-79
2023/02/05 03:11:54;;;;;;;;;;;;;;;-3.95;81.14;103057.21;105302;1285;76805;-78
2023/02/05 03:14:40;;;;;;;;;;;;;;;-3.99;81.20;103059.15;105353;1289;69096;-79
2023/02/05 03:17:26;;;;;;;;;;;;;;;-4.03;81.10;103056.16;105261;1286;72842;-79
2023/02/05 03:20:21;;;;;;;;;;;;;;;-4.05;81.22;103055.32;105232;1285;61888;-79
2023/02/05 03:23:07;;;;;;;;;;;;;;;-4.08;81.17;103053.55;105365;1285;61962;-78
2023/02/05 03:25:54;;;;;;;;;;;;;;;-4.08;81.20;103057.21;105346;1285;73890;-78
2023/02/05 03:28:40;;;;;;;;;;;;;;;-4.10;81.21;103046.61;105301;1290;67323;-78
2023/02/05 03:31:45;;;;;;;;;;;;;;;-4.11;81.23;103042.18;105336;1285;71629;-79
2023/02/05 03:34:54;;;;;;;;;;;;;;;-4.17;81.05;103036.74;105338;1290;62163;-79
2023/02/05 03:38:10;;;;;;;;;;;;;;;-4.23;80.99;103035.11;105104;1287;61911;-79
2023/02/05 03:41:08;;;;;;;;;;;;;;;-4.28;81.01;103035.32;104679;1294;74754;-78
2023/02/05 03:44:08;;;;;;;;;;;;;;;-4.29;81.15;103039.63;104665;1292;70113;-78
2023/02/05 03:47:04;;;;;;;;;;;;;;;-4.28;81.14;103047.84;104660;1293;74121;-78
2023/02/05 03:50:06;;;;;;;;;;;;;;;-4.28;81.12;103055.35;104708;1293;62208;-78
2023/02/05 03:52:56;;;;;;;;;;;;;;;-4.30;81.15;103055.42;104654;1292;62564;-78
2023/02/05 03:55:48;;;;;;;;;;;;;;;-4.33;81.07;103055.46;104658;1294;76247;-78
2023/02/05 03:58:38;;;;;;;;;;;;;;;-4.35;81.15;103059.73;104576;1293;70008;-78
2023/02/05 04:01:24;;;;;;;;;;;;;;;-4.36;81.00;103059.96;104649;1296;71188;-78
2023/02/05 04:04:11;;;;;;;;;;;;;;;-4.37;81.06;103061.22;104580;1292;62087;-78
2023/02/05 04:06:57;;;;;;;;;;;;;;;-4.38;81.17;103061.98;104680;1293;62219;-78
2023/02/05 04:09:43;;;;;;;;;;;;;;;-4.39;81.11;103068.48;104593;1293;73994;-78
2023/02/05 04:12:30;;;;;;;;;;;;;;;-4.43;81.07;103071.31;104611;1291;67289;-78
2023/02/05 04:15:16;;;;;;;;;;;;;;;-4.45;81.07;103069.11;104759;1293;71732;-78
2023/02/05 04:18:03;;;;;;;;;;;;;;;-4.44;81.09;103068.36;105261;1285;62014;-78
2023/02/05 04:20:49;;;;;;;;;;;;;;;-4.47;80.97;103073.02;105070;1288;62050;-79
2023/02/05 04:23:35;;;;;;;;;;;;;;;-4.50;80.92;103070.35;104933;1288;74276;-78
2023/02/05 04:26:21;;;;;;;;;;;;;;;-4.50;81.10;103070.55;104962;1291;67205;-78
2023/02/05 04:29:07;;;;;;;;;;;;;;;-4.46;81.16;103078.16;105033;1288;71499;-78
2023/02/05 04:31:54;;;;;;;;;;;;;;;-4.45;81.06;103084.11;104958;1288;60566;-78
2023/02/05 04:34:40;;;;;;;;;;;;;;;-4.46;81.07;103088.73;104967;1293;62250;-79
2023/02/05 04:37:26;;;;;;;;;;;;;;;-4.45;81.06;103084.79;104878;1290;75807;-79
2023/02/05 04:40:13;;;;;;;;;;;;;;;-4.48;80.95;103086.44;105067;1288;67057;-78
2023/02/05 04:42:59;;;;;;;;;;;;;;;-4.49;80.92;103086.98;105012;1293;71886;-79
2023/02/05 04:45:45;;;;;;;;;;;;;;;-4.55;80.89;103079.07;105042;1288;65586;-79
2023/02/05 04:48:31;;;;;;;;;;;;;;;-4.55;81.07;103077.20;104948;1292;61839;-79
2023/02/05 04:51:17;;;;;;;;;;;;;;;-4.53;80.99;103080.36;105150;1285;74901;-79
2023/02/05 04:54:03;;;;;;;;;;;;;;;-4.56;80.90;103074.74;105441;1285;67150;-78
2023/02/05 04:56:49;;;;;;;;;;;;;;;-4.56;81.01;103081.82;105394;1284;72680;-78
2023/02/05 04:59:36;;;;;;;;;;;;;;;-4.59;80.89;103088.30;105375;1285;62056;-78
2023/02/05 05:02:23;;;;;;;;;;;;;;;-4.61;80.93;103092.80;105324;1285;59873;-78
2023/02/05 05:05:10;;;;;;;;;;;;;;;-4.61;80.87;103097.83;105427;1285;74108;-78
2023/02/05 05:07:57;;;;;;;;;;;;;;;-4.61;80.99;103098.55;105339;1285;67347;-78
2023/02/05 05:10:44;;;;;;;;;;;;;;;-4.61;80.87;103105.31;105349;1285;72307;-78
2023/02/05 05:13:31;;;;;;;;;;;;;;;-4.64;80.81;103109.06;105292;1284;63738;-78
2023/02/05 05:16:17;;;;;;;;;;;;;;;-4.71;80.63;103106.83;105293;1285;60203;-78
2023/02/05 05:19:04;;;;;;;;;;;;;;;-4.77;80.71;103103.12;105283;1284;74956;-78
2023/02/05 05:21:50;;;;;;;;;;;;;;;-4.82;80.71;103104.58;105288;1285;68337;-78
2023/02/05 05:24:36;;;;;;;;;;;;;;;-4.82;80.89;103099.97;105390;1284;70283;-78
2023/02/05 05:27:23;;;;;;;;;;;;;;;-4.81;80.89;103107.36;105420;1285;62321;-78
2023/02/05 05:30:10;;;;;;;;;;;;;;;-4.85;80.69;103103.42;105298;1285;60689;-78
2023/02/05 05:32:56;;;;;;;;;;;;;;;-4.89;80.76;103103.61;105306;1285;75343;-78
2023/02/05 05:35:44;;;;;;;;;;;;;;;-4.91;80.69;103104.64;105295;1285;67185;-78
2023/02/05 05:38:30;;;;;;;;;;;;;;;-4.90;80.83;103110.09;105450;1285;72345;-79
2023/02/05 05:44:22;;;;;;;;;;;;;;;-4.87;80.89;103116.91;105834;1284;62072;-78
2023/02/05 05:47:08;;;;;;;;;;;;;;;-4.86;80.78;103121.18;105482;1284;76364;-78
2023/02/05 05:49:55;;;;;;;;;;;;;;;-4.87;80.76;103126.17;105321;1290;68806;-78
2023/02/05 05:52:41;;;;;;;;;;;;;;;-4.87;80.83;103122.77;105340;1285;71327;-78
2023/02/05 05:55:28;;;;;;;;;;;;;;;-4.90;80.77;103121.67;105428;1284;62031;-78
2023/02/05 05:58:14;;;;;;;;;;;;;;;-4.91;80.75;103124.41;105297;1285;60331;-78
2023/02/05 06:01:00;;;;;;;;;;;;;;;-4.91;80.82;103124.41;105337;1284;74335;-78
2023/02/05 06:03:46;;;;;;;;;;;;;;;-4.92;80.74;103129.43;105310;1285;69221;-78
2023/02/05 06:06:33;;;;;;;;;;;;;;;-4.96;80.62;103126.51;105248;1285;72645;-78
2023/02/05 06:09:20;;;;;;;;;;;;;;;-5.00;80.74;103120.34;105297;1287;61992;-79
2023/02/05 06:12:06;;;;;;;;;;;;;;;-5.00;80.74;103125.15;105362;1285;64321;-78
2023/02/05 06:14:52;;;;;;;;;;;;;;;-5.04;80.61;103122.48;105369;1286;75683;-78
2023/02/05 06:17:39;;;;;;;;;;;;;;;-5.05;80.66;103122.73;105224;1287;68997;-78
2023/02/05 06:20:25;;;;;;;;;;;;;;;-5.06;80.75;103127.23;105202;1285;76077;-78
2023/02/05 06:23:11;;;;;;;;;;;;;;;-5.05;80.70;103124.55;105325;1287;62082;-78
2023/02/05 06:25:57;;;;;;;;;;;;;;;-5.08;80.59;103123.45;105299;1286;60380;-78
2023/02/05 06:28:43;;;;;;;;;;;;;;;-5.10;80.70;103126.20;105271;1285;75214;-78
2023/02/05 06:31:30;;;;;;;;;;;;;;;-5.11;80.64;103126.61;105151;1285;67415;-78
2023/02/05 06:34:16;;;;;;;;;;;;;;;-5.15;80.52;103134.77;105234;1285;71244;-78
2023/02/05 06:37:02;;;;;;;;;;;;;;;-5.17;80.64;103143.48;105182;1286;60277;-78
2023/02/05 06:39:48;;;;;;;;;;;;;;;-5.17;80.78;103155.81;105229;1285;62046;-79
2023/02/05 06:42:34;;;;;;;;;;;;;;;-5.14;80.76;103159.89;105341;1285;74103;-78
2023/02/05 06:45:21;;;;;;;;;;;;;;;-5.12;80.81;103164.67;105335;1287;71466;-78
2023/02/05 06:48:07;;;;;;;;;;;;;;;-5.10;80.84;103161.98;105405;1285;74028;-78
2023/02/05 06:50:53;;;;;;;;;;;;;;;-5.08;80.78;103162.98;105255;1291;62104;-78
2023/02/05 06:53:39;;;;;;;;;;;;;;;-5.08;80.80;103170.42;105242;1285;62186;-78
2023/02/05 06:56:25;;;;;;;;;;;;;;;-5.02;80.85;103175.27;105215;1284;74248;-78
2023/02/05 06:59:11;;;;;;;;;;;;;;;-4.94;81.00;103177.83;105279;1285;73342;-78
2023/02/05 07:01:58;;;;;;;;;;;;;;;-4.87;80.95;103179.13;105249;1286;71684;-78
2023/02/05 07:04:44;;;;;;;;;;;;;;;-4.81;81.02;103180.33;105364;1285;62103;-78
2023/02/05 07:07:30;;;;;;;;;;;;;;;-4.75;80.93;103180.33;105281;1287;62009;-78
2023/02/05 07:10:17;;;;;;;;;;;;;;;-4.70;80.96;103184.50;105463;1285;74260;-78
2023/02/05 07:13:03;;;;;;;;;;;;;;;-4.66;80.91;103182.81;105407;1285;67292;-78
2023/02/05 07:15:49;;;;;;;;;;;;;;;-4.64;80.84;103184.98;105342;1285;71212;-78
2023/02/05 07:18:35;;;;;;;;;;;;;;;-4.63;80.78;103190.91;105442;1285;61918;-78
2023/02/05 07:21:22;;;;;;;;;;;;;;;-4.63;80.81;103196.86;105486;1285;61918;-78
2023/02/05 07:24:08;;;;;;;;;;;;;;;-4.61;80.81;103199.39;105446;1285;74877;-78
2023/02/05 07:26:54;;;;;;;;;;;;;;;-4.61;80.72;103201.84;105468;1284;67999;-78
2023/02/05 07:29:40;;;;;;;;;;;;;;;-4.64;80.77;103200.97;105337;1285;71237;-78
2023/02/05 07:32:26;;;;;;;;;;;;;;;-4.64;80.86;103198.06;105404;1285;60309;-78
2023/02/05 07:35:12;;;;;;;;;;;;;;;-4.55;81.08;103197.52;105400;1285;61730;-78
2023/02/05 07:37:58;;;;;;;;;;;;;;;-4.34;81.35;103191.41;105359;1290;75891;-78
2023/02/05 07:40:44;;;;;;;;;;;;;;;-4.00;81.52;103194.19;105349;1285;71455;-78
2023/02/05 07:43:31;;;;;;;;;;;;;;;-3.76;81.41;103193.28;105374;1285;71420;-78
2023/02/05 07:46:18;;;;;;;;;;;;;;;-3.60;81.40;103199.28;105369;1285;62042;-78
2023/02/05 07:49:04;;;;;;;;;;;;;;;-3.43;81.41;103199.25;105421;1286;61890;-78
2023/02/05 07:51:50;;;;;;;;;;;;;;;-3.33;81.23;103196.84;105407;1285;75889;-78
2023/02/05 07:54:37;;;;;;;;;;;;;;;-3.25;81.27;103196.48;105464;1285;67237;-78
2023/02/05 07:57:23;;;;;;;;;;;;;;;-3.23;81.15;103193.79;105444;1285;71425;-79
2023/02/05 08:00:10;;;;;;;;;;;;;;;-3.19;81.24;103195.63;105377;1285;62080;-78
2023/02/05 08:02:56;;;;;;;;;;;;;;;-3.13;81.28;103199.33;105291;1285;61937;-78
2023/02/05 08:05:42;;;;;;;;;;;;;;;-3.03;81.31;103209.27;105393;1289;74065;-78
2023/02/05 08:08:28;;;;;;;;;;;;;;;-2.92;81.32;103215.64;105315;1285;69403;-78
2023/02/05 08:11:15;;;;;;;;;;;;;;;-2.82;81.37;103224.94;105364;1285;72751;-78
2023/02/05 08:14:01;;;;;;;;;;;;;;;-2.70;81.49;103231.29;105488;1284;61937;-78
2023/02/05 08:16:48;;;;;;;;;;;;;;;-2.58;81.61;103223.92;105300;1285;59835;-78
2023/02/05 08:19:34;;;;;;;;;;;;;;;-2.46;81.71;103228.42;105310;1285;73968;-78
2023/02/05 08:22:20;;;;;;;;;;;;;;;-2.34;81.69;103228.84;105484;1285;68223;-79
2023/02/05 08:25:07;;;;;;;;;;;;;;;-2.23;81.75;103229.39;105451;1285;72115;-79
2023/02/05 08:27:53;;;;;;;;;;;;;;;-2.13;81.80;103233.23;105424;1285;62145;-78
2023/02/05 08:30:39;;;;;;;;;;;;;;;-2.03;81.78;103231.45;105286;1285;62026;-78
2023/02/05 08:33:26;;;;;;;;;;;;;;;-1.91;81.77;103224.90;105325;1285;78401;-78
2023/02/05 08:36:12;;;;;;;;;;;;;;;-1.80;81.74;103224.73;105398;1285;67423;-78
2023/02/05 08:38:58;;;;;;;;;;;;;;;-1.69;81.84;103223.59;105471;1285;72004;-79
2023/02/05 08:41:44;;;;;;;;;;;;;;;-1.61;81.84;103218.05;105396;1285;62125;-79
2023/02/05 08:44:30;;;;;;;;;;;;;;;-1.49;81.82;103216.56;105371;1284;60881;-79
2023/02/05 08:47:20;;;;;;;;;;;;;;;-1.41;81.82;103215.17;105439;1285;74085;-79
2023/02/05 08:50:06;;;;;;;;;;;;;;;-1.30;81.91;103213.56;105331;1285;69973;-79
2023/02/05 08:52:53;;;;;;;;;;;;;;;-1.18;81.97;103216.68;105251;1285;71291;-79
2023/02/05 08:55:39;;;;;;;;;;;;;;;-1.05;81.95;103214.91;105414;1284;60324;-79
2023/02/05 08:58:26;;;;;;;;;;;;;;;-0.93;81.97;103218.80;87079;1289;5004781;-79
2023/02/05 09:01:13;;;;;;;;;;;;;;;-0.92;81.77;103222.65;105412;1285;67821;-79
2023/02/05 09:04:00;;;;;;;;;;;;;;;-0.91;81.87;103226.75;105307;1285;74482;-79
2023/02/05 09:06:46;;;;;;;;;;;;;;;-0.85;81.94;103230.73;105449;1285;62104;-79
2023/02/05 09:09:34;;;;;;;;;;;;;;;-0.79;81.99;103227.98;105281;1284;62741;-79
2023/02/05 09:12:20;;;;;;;;;;;;;;;-0.79;81.93;103233.72;105447;1284;75078;-79
2023/02/05 09:15:07;;;;;;;;;;;;;;;-0.77;81.96;103235.73;105465;1284;67270;-79
2023/02/05 09:17:53;;;;;;;;;;;;;;;-0.79;81.85;103236.79;105305;1285;72438;-79
2023/02/05 09:20:43;;;;;;;;;;;;;;;-0.80;81.91;103231.13;105273;1285;61918;-79
2023/02/05 09:23:29;;;;;;;;;;;;;;;-0.75;82.07;103226.23;105422;1285;62101;-79
2023/02/05 09:26:16;;;;;;;;;;;;;;;-0.69;82.08;103217.67;105371;1285;73995;-79
2023/02/05 09:29:02;;;;;;;;;;;;;;;-0.69;82.04;103208.06;105447;1284;66626;-79
2023/02/05 09:31:49;;;;;;;;;;;;;;;-0.65;82.13;103203.71;105286;1285;74348;-79
2023/02/05 09:34:35;;;;;;;;;;;;;;;-0.60;82.11;103199.16;105450;1285;60468;-79
2023/02/05 09:37:21;;;;;;;;;;;;;;;-0.54;82.25;103193.01;105316;1285;61971;-79
2023/02/05 09:40:17;;;;;;;;;;;;;;;-0.45;82.29;103183.27;105316;1285;74021;-79
2023/02/05 09:43:03;;;;;;;;;;;;;;;-0.42;82.18;103179.58;105461;1285;67415;-79
2023/02/05 09:45:49;;;;;;;;;;;;;;;-0.35;82.16;103180.75;105365;1285;73422;-79
2023/02/05 09:48:53;;;;;;;;;;;;;;;-0.27;82.33;103183.65;105431;1285;61954;-79
2023/02/05 09:51:44;;;;;;;;;;;;;;;-0.18;82.27;103186.71;105493;1289;61962;-79
2023/02/05 09:54:34;;;;;;;;;;;;;;;-0.12;82.25;103189.16;105500;1285;76757;-79
2023/02/05 09:57:40;;;;;;;;;;;;;;;-0.05;82.22;103193.73;105297;1286;69091;-79
2023/02/05 10:00:32;;;;;;;;;;;;;;;0.01;82.13;103196.95;105455;1284;71227;-79
2023/02/05 10:03:44;;;;;;;;;;;;;;;0.02;82.09;103190.06;105454;1285;62592;-79
2023/02/05 10:06:30;;;;;;;;;;;;;;;0.05;82.03;103189.20;104707;1293;59436;-79
2023/02/05 10:09:35;;;;;;;;;;;;;;;0.03;81.96;103186.90;104699;1293;74711;-79
2023/02/05 10:12:25;;;;;;;;;;;;;;;0.01;81.96;103198.30;104727;1293;70021;-79
2023/02/05 10:15:29;;;;;;;;;;;;;;;0.04;82.03;103200.86;104723;1294;75846;-79
2023/02/05 10:18:41;;;;;;;;;;;;;;;0.09;82.06;103198.33;104759;1291;62194;-79
2023/02/05 10:21:46;;;;;;;;;;;;;;;0.13;82.05;103195.44;104104;1302;59900;-79
2023/02/05 10:24:41;;;;;;;;;;;;;;;0.11;81.94;103196.64;104131;1299;74116;-79
2023/02/05 10:27:37;;;;;;;;;;;;;;;0.14;81.97;103200.06;104125;1299;67467;-79
2023/02/05 10:30:27;;;;;;;;;;;;;;;0.18;81.87;103195.95;104145;1302;71460;-79
2023/02/05 10:33:17;;;;;;;;;;;;;;;0.19;81.70;103195.60;104112;1299;62024;-79
2023/02/05 10:36:05;;;;;;;;;;;;;;;0.20;81.78;103198.78;104067;1299;62056;-79
2023/02/05 10:38:53;;;;;;;;;;;;;;;0.21;81.74;103190.84;104106;1299;75857;-79
2023/02/05 10:41:48;;;;;;;;;;;;;;;0.20;81.74;103194.18;104038;1301;67500;-79
2023/02/05 10:44:45;;;;;;;;;;;;;;;0.26;81.89;103193.93;104474;1296;71389;-79
2023/02/05 10:47:52;;;;;;;;;;;;;;;0.34;81.84;103198.52;104515;1299;61976;-79
2023/02/05 10:50:49;;;;;;;;;;;;;;;0.36;81.77;103198.66;104133;1299;62883;-79
2023/02/05 10:53:35;;;;;;;;;;;;;;;0.39;81.76;103188.83;103982;1299;76028;-79
2023/02/05 10:56:21;;;;;;;;;;;;;;;0.42;81.71;103190.77;104024;1300;68003;-79
2023/02/05 10:59:14;;;;;;;;;;;;;;;0.45;81.75;103186.05;104393;1295;71493;-79
2023/02/05 11:02:02;;;;;;;;;;;;;;;0.53;81.97;103178.03;104513;1296;61819;-79
2023/02/05 11:04:50;;;;;;;;;;;;;;;0.58;81.89;103172.78;104607;1294;60191;-79
2023/02/05 11:07:42;;;;;;;;;;;;;;;0.63;81.92;103165.67;104491;1296;76113;-79
2023/02/05 11:10:31;;;;;;;;;;;;;;;0.68;81.86;103166.49;104547;1296;69194;-79
2023/02/05 11:13:19;;;;;;;;;;;;;;;0.73;81.81;103166.61;104422;1295;71222;-79
2023/02/05 11:16:07;;;;;;;;;;;;;;;0.77;81.79;103161.27;104575;1295;61938;-79
2023/02/05 11:18:56;;;;;;;;;;;;;;;0.78;81.63;103160.02;104468;1294;61995;-79
2023/02/05 11:22:08;;;;;;;;;;;;;;;0.81;81.71;103160.35;104524;1295;76815;-79
2023/02/05 11:25:25;;;;;;;;;;;;;;;0.88;81.79;103159.63;104077;1301;68170;-79
2023/02/05 11:28:19;;;;;;;;;;;;;;;0.90;81.74;103160.08;103877;1299;71426;-79
2023/02/05 11:31:27;;;;;;;;;;;;;;;0.92;81.74;103158.90;105361;1301;59710;-79
2023/02/05 11:34:18;;;;;;;;;;;;;;;0.95;81.70;103156.02;105338;1299;59810;-79
2023/02/05 11:37:04;;;;;;;;;;;;;;;0.99;81.72;103150.02;105343;1299;74143;-81
2023/02/05 11:39:53;;;;;;;;;;;;;;;0.97;81.50;103146.46;104678;1299;68907;-80
2023/02/05 11:42:39;;;;;;;;;;;;;;;0.97;81.64;103145.08;104037;1299;71381;-80
2023/02/05 11:45:26;;;;;;;;;;;;;;;1.01;81.69;103140.77;104095;1302;61006;-80
2023/02/05 11:48:50;;;;;;;;;;;;;;;1.05;81.63;103144.23;104087;1299;61907;-80
2023/02/05 11:51:42;;;;;;;;;;;;;;;1.09;81.65;103139.86;103817;1304;75589;-80
2023/02/05 11:54:30;;;;;;;;;;;;;;;1.10;81.54;103139.77;103798;1305;70112;-80
2023/02/05 11:57:40;;;;;;;;;;;;;;;1.07;81.49;103138.71;103796;1308;73677;-80
2023/02/05 12:00:27;;;;;;;;;;;;;;;1.01;81.36;103136.67;103363;1308;62216;-80
2023/02/05 12:03:17;;;;;;;;;;;;;;;0.92;81.06;103134.40;103864;1305;62033;-79
2023/02/05 12:06:11;;;;;;;;;;;;;;;0.89;81.42;103124.54;104226;1297;76779;-79
2023/02/05 12:08:57;;;;;;;;;;;;;;;0.88;81.55;103120.43;104385;1297;67259;-79
2023/02/05 12:12:17;;;;;;;;;;;;;;;0.87;81.50;103118.80;104332;1297;71252;-79
2023/02/05 12:15:14;;;;;;;;;;;;;;;0.86;81.49;103121.83;104142;1302;62094;-79
2023/02/05 12:18:08;;;;;;;;;;;;;;;0.87;81.52;103128.79;104087;1300;60503;-79
2023/02/05 12:21:24;;;;;;;;;;;;;;;0.85;81.33;103121.43;104298;1300;74226;-79
2023/02/05 12:24:12;;;;;;;;;;;;;;;0.82;81.32;103124.59;103922;1305;67760;-79
2023/02/05 12:27:07;;;;;;;;;;;;;;;0.82;81.42;103122.54;103903;1305;73069;-79
2023/02/05 12:30:00;;;;;;;;;;;;;;;0.82;81.39;103118.98;103895;1305;61986;-79
2023/02/05 12:32:49;;;;;;;;;;;;;;;0.82;81.34;103118.66;103886;1303;62917;-79
2023/02/05 12:36:04;;;;;;;;;;;;;;;0.81;81.38;103119.27;103921;1305;78179;-79
2023/02/05 12:39:09;;;;;;;;;;;;;;;0.78;81.35;103118.74;103911;1304;67884;-79
2023/02/05 12:42:15;;;;;;;;;;;;;;;0.75;81.41;103122.95;103947;1303;71359;-79
2023/02/05 12:45:17;;;;;;;;;;;;;;;0.72;81.31;103125.96;103505;1309;62178;-79
2023/02/05 12:48:10;;;;;;;;;;;;;;;0.70;81.32;103122.64;103493;1308;61157;-79
2023/02/05 12:50:56;;;;;;;;;;;;;;;0.68;81.31;103127.43;103525;1303;74747;-79
2023/02/05 12:53:57;;;;;;;;;;;;;;;0.66;81.38;103128.00;103945;1303;67135;-79
2023/02/05 12:57:00;;;;;;;;;;;;;;;0.65;81.31;103127.23;103943;1306;73968;-79
2023/02/05 12:59:59;;;;;;;;;;;;;;;0.63;81.23;103125.94;103984;1303;62087;-79
2023/02/05 13:03:05;;;;;;;;;;;;;;;0.63;81.27;103120.64;104337;1299;60579;-79
2023/02/05 13:05:54;;;;;;;;;;;;;;;0.60;81.24;103121.52;104243;1299;75901;-79
2023/02/05 13:08:44;;;;;;;;;;;;;;;0.59;81.30;103121.60;104163;1299;68940;-79
2023/02/05 13:11:33;;;;;;;;;;;;;;;0.60;81.32;103120.32;104183;1299;71316;-79
2023/02/05 13:14:28;;;;;;;;;;;;;;;0.61;81.29;103121.19;104159;1299;59949;-79
2023/02/05 13:17:18;;;;;;;;;;;;;;;0.60;81.24;103118.29;104849;1291;60311;-79
2023/02/05 13:20:06;;;;;;;;;;;;;;;0.57;81.03;103120.44;104930;1292;74102;-79
2023/02/05 13:29:08;;;;;;;;;;;;;;;0.52;81.07;103108.74;105331;1289;61879;-79
2023/02/05 13:32:06;;;;;;;;;;;;;;;0.52;80.99;103106.19;105219;1286;62087;-78
2023/02/05 13:34:54;;;;;;;;;;;;;;;0.50;80.91;103102.53;105314;1285;73974;-79
2023/02/05 13:37:51;;;;;;;;;;;;;;;0.49;80.87;103108.73;105339;1289;67196;-79
2023/02/05 13:41:07;;;;;;;;;;;;;;;0.47;80.90;103103.35;105265;1286;74034;-79
2023/02/05 13:44:25;;;;;;;;;;;;;;;0.46;80.88;103106.50;105104;1287;60705;-79
2023/02/05 13:47:34;;;;;;;;;;;;;;;0.44;80.89;103118.58;104866;1295;62013;-79
2023/02/05 13:50:41;;;;;;;;;;;;;;;0.42;80.96;103121.00;104395;1296;76809;-79
2023/02/05 13:53:53;;;;;;;;;;;;;;;0.42;80.88;103120.83;104307;1297;67271;-79
2023/02/05 13:56:59;;;;;;;;;;;;;;;0.41;80.96;103115.16;103924;1303;70900;-78
2023/02/05 13:59:52;;;;;;;;;;;;;;;0.39;80.88;103111.46;103622;1308;61921;-79
2023/02/05 14:02:41;;;;;;;;;;;;;;;0.37;80.88;103110.34;103502;1309;60942;-78
2023/02/05 14:05:29;;;;;;;;;;;;;;;0.35;80.74;103113.27;103613;1306;75415;-78
2023/02/05 14:08:21;;;;;;;;;;;;;;;0.33;80.76;103119.92;103682;1308;68084;-78
2023/02/05 14:11:08;;;;;;;;;;;;;;;0.32;80.71;103122.36;103474;1314;71328;-79
2023/02/05 14:14:13;;;;;;;;;;;;;;;0.30;80.73;103125.67;103787;1306;62059;-78
2023/02/05 14:17:00;;;;;;;;;;;;;;;0.28;80.74;103128.75;103760;1305;61273;-78
2023/02/05 14:20:08;;;;;;;;;;;;;;;0.27;80.77;103128.66;103739;1306;74232;-78
2023/02/05 14:23:02;;;;;;;;;;;;;;;0.25;80.79;103125.50;103032;1309;67382;-78
2023/02/05 14:26:05;;;;;;;;;;;;;;;0.23;80.69;103119.43;103167;1314;77128;-78
2023/02/05 14:28:51;;;;;;;;;;;;;;;0.21;80.75;103114.53;103666;1306;62024;-78
2023/02/05 14:31:44;;;;;;;;;;;;;;;0.19;80.63;103116.08;103730;1304;60605;-79
2023/02/05 14:34:30;;;;;;;;;;;;;;;0.16;80.65;103115.40;103902;1305;75674;-79
2023/02/05 14:37:35;;;;;;;;;;;;;;;0.15;80.54;103121.41;104372;1295;599315;-80